createdAt,value
2022-08-26T00:01:03.086Z,18.18
2022-08-26T00:03:30.050Z,18.14
2022-08-26T00:05:57.045Z,18.18
2022-08-26T00:08:25.581Z,18.17
2022-08-26T00:10:52.578Z,18.17
2022-08-26T00:13:19.488Z,18.19
2022-08-26T00:15:47.144Z,18.14
2022-08-26T00:18:16.756Z,18.19
2022-08-26T00:20:49.816Z,18.24
2022-08-26T00:23:17.963Z,18.20
2022-08-26T00:25:44.977Z,18.21
2022-08-26T00:28:12.372Z,18.17
2022-08-26T00:30:40.739Z,18.22
2022-08-26T00:33:08.163Z,18.13
2022-08-26T00:35:36.187Z,18.14
2022-08-26T00:38:03.136Z,18.06
2022-08-26T00:40:32.408Z,18.05
2022-08-26T00:42:59.923Z,17.98
2022-08-26T00:45:27.508Z,17.92
2022-08-26T00:47:56.290Z,17.90
2022-08-26T00:50:26.400Z,17.90
2022-08-26T00:52:55.608Z,17.88
2022-08-26T00:55:51.986Z,17.85
2022-08-26T00:58:20.224Z,17.82
2022-08-26T01:00:48.051Z,17.78
2022-08-26T01:03:17.169Z,17.78
2022-08-26T01:05:44.361Z,17.77
2022-08-26T01:08:11.349Z,17.80
2022-08-26T01:10:38.882Z,17.74
2022-08-26T01:13:10.358Z,17.75
2022-08-26T01:15:42.815Z,17.70
2022-08-26T01:18:10.478Z,17.74
2022-08-26T01:21:09.588Z,17.74
2022-08-26T01:23:39.317Z,17.78
2022-08-26T01:26:19.827Z,17.78
2022-08-26T01:28:50.702Z,17.76
2022-08-26T01:31:20.888Z,17.77
2022-08-26T01:33:48.034Z,17.82
2022-08-26T01:36:17.119Z,17.78
2022-08-26T01:38:44.800Z,17.76
2022-08-26T01:41:16.270Z,17.79
2022-08-26T01:43:48.458Z,17.75
2022-08-26T01:46:16.223Z,17.76
2022-08-26T01:48:44.393Z,17.70
2022-08-26T01:51:12.423Z,17.70
2022-08-26T01:53:41.778Z,17.70
2022-08-26T01:56:13.000Z,17.68
2022-08-26T01:58:43.470Z,17.66
2022-08-26T02:01:11.247Z,17.57
2022-08-26T02:03:45.378Z,17.54
2022-08-26T02:06:14.481Z,17.54
2022-08-26T02:08:49.900Z,17.53
2022-08-26T02:11:18.405Z,17.54
2022-08-26T02:13:46.889Z,17.50
2022-08-26T02:16:16.359Z,17.53
2022-08-26T02:18:43.955Z,17.52
2022-08-26T02:21:13.991Z,17.57
2022-08-26T02:23:41.644Z,17.58
2022-08-26T02:26:11.426Z,17.61
2022-08-26T02:28:46.766Z,17.56
2022-08-26T02:31:13.889Z,17.53
2022-08-26T02:33:43.099Z,17.50
2022-08-26T02:36:10.258Z,17.52
2022-08-26T02:38:39.275Z,17.51
2022-08-26T02:41:06.728Z,17.51
2022-08-26T02:43:35.049Z,17.50
2022-08-26T02:46:02.618Z,17.48
2022-08-26T02:48:29.932Z,17.44
2022-08-26T02:50:58.446Z,17.48
2022-08-26T02:53:25.774Z,17.42
2022-08-26T02:55:52.819Z,17.49
2022-08-26T02:58:21.177Z,17.46
2022-08-26T03:00:52.546Z,17.36
2022-08-26T03:03:22.473Z,17.36
2022-08-26T03:05:51.248Z,17.28
2022-08-26T03:08:18.549Z,17.20
2022-08-26T03:10:47.619Z,17.16
2022-08-26T03:13:16.713Z,17.17
2022-08-26T03:15:44.276Z,17.14
2022-08-26T03:18:13.476Z,17.05
2022-08-26T03:20:40.702Z,17.10
2022-08-26T03:23:08.269Z,17.13
2022-08-26T03:25:36.153Z,17.16
2022-08-26T03:28:04.130Z,17.13
2022-08-26T03:30:44.209Z,17.17
2022-08-26T03:33:12.969Z,17.16
2022-08-26T03:35:41.166Z,17.17
2022-08-26T03:38:08.708Z,17.20
2022-08-26T03:40:36.863Z,17.23
2022-08-26T03:43:06.013Z,17.21
2022-08-26T03:45:37.311Z,17.15
2022-08-26T03:48:05.089Z,17.12
2022-08-26T03:50:34.304Z,17.11
2022-08-26T03:53:03.249Z,17.14
2022-08-26T03:55:32.161Z,17.17
2022-08-26T03:58:00.099Z,17.05
2022-08-26T04:00:27.258Z,17.08
2022-08-26T04:02:54.683Z,17.12
2022-08-26T04:05:23.142Z,17.16
2022-08-26T04:07:50.726Z,17.10
2022-08-26T04:10:20.405Z,17.14
2022-08-26T04:12:47.459Z,17.07
2022-08-26T04:15:15.807Z,17.05
2022-08-26T04:17:43.444Z,17.09
2022-08-26T04:20:14.032Z,17.04
2022-08-26T04:22:43.645Z,17.07
2022-08-26T04:25:11.343Z,17.12
2022-08-26T04:27:38.849Z,17.13
2022-08-26T04:30:08.894Z,17.13
2022-08-26T04:32:36.669Z,17.09
2022-08-26T04:35:04.648Z,17.11
2022-08-26T04:37:32.564Z,17.15
2022-08-26T04:39:59.786Z,17.15
2022-08-26T04:42:27.401Z,17.18
2022-08-26T04:44:55.486Z,17.31
2022-08-26T04:47:22.381Z,17.35
2022-08-26T04:49:49.291Z,17.37
2022-08-26T04:52:17.682Z,17.50
2022-08-26T04:54:44.923Z,17.61
2022-08-26T04:57:12.513Z,17.63
2022-08-26T04:59:40.652Z,17.73
2022-08-26T05:02:07.490Z,17.75
2022-08-26T05:04:36.275Z,17.84
2022-08-26T05:07:03.916Z,17.88
2022-08-26T05:09:30.723Z,17.98
2022-08-26T05:11:57.849Z,18.06
2022-08-26T05:14:24.984Z,18.18
2022-08-26T05:16:51.914Z,18.25
2022-08-26T05:19:19.479Z,18.39
2022-08-26T05:21:48.621Z,18.56
2022-08-26T05:24:15.861Z,18.71
2022-08-26T05:26:44.591Z,18.84
2022-08-26T05:29:12.246Z,18.99
2022-08-26T05:31:39.238Z,19.20
2022-08-26T05:34:06.981Z,19.39
2022-08-26T05:36:36.367Z,19.59
2022-08-26T05:39:07.990Z,19.80
2022-08-26T05:41:39.098Z,20.05
2022-08-26T05:44:07.465Z,20.25
2022-08-26T05:46:36.761Z,20.41
2022-08-26T05:49:05.756Z,20.50
2022-08-26T05:51:32.997Z,20.63
2022-08-26T05:54:01.906Z,20.84
2022-08-26T05:56:31.107Z,21.10
2022-08-26T05:58:59.736Z,21.30
2022-08-26T06:01:27.609Z,21.35
2022-08-26T06:03:57.341Z,21.45
2022-08-26T06:06:29.963Z,21.56
2022-08-26T06:08:59.524Z,21.69
2022-08-26T06:11:27.399Z,21.92
2022-08-26T06:13:57.979Z,22.27
2022-08-26T06:16:29.505Z,22.62
2022-08-26T06:18:56.323Z,22.93
2022-08-26T06:21:31.293Z,23.23
2022-08-26T06:24:22.058Z,23.52
2022-08-26T06:26:55.831Z,23.85
2022-08-26T06:29:24.904Z,24.05
2022-08-26T06:31:52.769Z,24.26
2022-08-26T06:34:19.743Z,24.52
2022-08-26T06:36:48.119Z,24.65
2022-08-26T06:39:16.098Z,24.92
2022-08-26T06:41:45.104Z,25.33
2022-08-26T06:44:17.394Z,25.74
2022-08-26T06:46:46.157Z,26.06
2022-08-26T06:49:17.928Z,26.45
2022-08-26T06:51:45.081Z,26.68
2022-08-26T06:54:12.064Z,26.87
2022-08-26T06:56:40.381Z,26.85
2022-08-26T06:59:08.699Z,27.20
2022-08-26T07:01:38.539Z,27.57
2022-08-26T07:04:10.803Z,27.90
2022-08-26T07:06:40.152Z,28.03
2022-08-26T07:09:09.910Z,28.47
2022-08-26T07:11:38.392Z,28.99
2022-08-26T07:14:06.269Z,29.32
2022-08-26T07:16:33.667Z,29.64
2022-08-26T07:19:11.113Z,30.08
2022-08-26T07:21:40.516Z,30.47
2022-08-26T07:24:08.681Z,30.91
2022-08-26T07:26:38.522Z,31.31
2022-08-26T07:29:06.945Z,31.60
2022-08-26T07:31:42.180Z,31.99
2022-08-26T07:34:11.036Z,32.32
2022-08-26T07:36:38.300Z,32.70
2022-08-26T07:39:05.978Z,33.10
2022-08-26T07:41:33.734Z,33.22
2022-08-26T07:44:01.602Z,33.67
2022-08-26T07:46:30.258Z,34.28
2022-08-26T07:48:58.116Z,34.39
2022-08-26T07:51:25.780Z,34.57
2022-08-26T07:53:53.201Z,34.42
2022-08-26T07:56:21.186Z,34.63
2022-08-26T07:58:51.787Z,35.04
2022-08-26T08:01:20.446Z,35.48
2022-08-26T08:03:50.557Z,35.82
2022-08-26T08:06:19.118Z,35.90
2022-08-26T08:08:46.490Z,35.89
2022-08-26T08:11:14.552Z,35.96
2022-08-26T08:13:41.631Z,36.15
2022-08-26T08:16:12.739Z,36.35
2022-08-26T08:18:40.747Z,35.67
2022-08-26T08:21:21.152Z,36.33
2022-08-26T08:23:49.043Z,36.52
2022-08-26T08:26:16.806Z,36.70
2022-08-26T08:28:43.954Z,36.95
2022-08-26T08:31:21.632Z,36.95
2022-08-26T08:34:00.417Z,37.26
2022-08-26T08:36:27.391Z,37.34
2022-08-26T08:39:03.542Z,37.96
2022-08-26T08:41:41.776Z,37.48
2022-08-26T08:44:11.017Z,37.82
2022-08-26T08:46:38.387Z,37.64
2022-08-26T08:49:06.144Z,37.82
2022-08-26T08:51:39.575Z,38.01
2022-08-26T08:54:07.605Z,37.98
2022-08-26T08:56:37.796Z,38.19
2022-08-26T08:59:22.527Z,38.37
2022-08-26T09:02:06.490Z,38.16
2022-08-26T09:04:48.833Z,37.71
2022-08-26T09:07:24.602Z,37.43
2022-08-26T09:09:57.338Z,37.37
2022-08-26T09:12:29.459Z,36.64
2022-08-26T09:15:17.577Z,37.01
2022-08-26T09:17:51.062Z,36.90
2022-08-26T09:20:24.633Z,37.00
2022-08-26T09:22:51.766Z,36.36
2022-08-26T09:25:18.764Z,36.07
2022-08-26T09:27:50.515Z,35.93
2022-08-26T09:30:26.551Z,35.86
2022-08-26T09:33:14.341Z,35.59
2022-08-26T09:35:47.109Z,35.86
2022-08-26T09:38:21.872Z,36.15
2022-08-26T09:40:59.660Z,36.52
2022-08-26T09:43:28.604Z,36.67
2022-08-26T09:46:12.590Z,36.77
2022-08-26T09:48:41.013Z,36.70
2022-08-26T09:51:28.482Z,36.77
2022-08-26T09:53:59.538Z,36.95
2022-08-26T09:56:28.746Z,36.00
2022-08-26T09:58:56.923Z,35.75
2022-08-26T10:01:23.879Z,35.66
2022-08-26T10:03:51.558Z,35.73
2022-08-26T10:06:21.081Z,35.73
2022-08-26T10:08:49.777Z,36.27
2022-08-26T10:11:19.703Z,36.66
2022-08-26T10:13:49.477Z,36.14
2022-08-26T10:16:21.984Z,35.96
2022-08-26T10:18:59.931Z,36.41
2022-08-26T10:21:39.096Z,36.28
2022-08-26T10:24:07.804Z,36.35
2022-08-26T10:26:50.743Z,36.76
2022-08-26T10:29:23.213Z,36.70
2022-08-26T10:31:53.079Z,36.89
2022-08-26T10:34:21.267Z,37.17
2022-08-26T10:37:16.108Z,37.32
2022-08-26T10:39:58.504Z,37.46
2022-08-26T10:42:30.386Z,37.98
2022-08-26T10:45:02.616Z,37.42
2022-08-26T10:47:44.721Z,37.39
2022-08-26T10:50:12.814Z,38.13
2022-08-26T10:52:46.630Z,38.71
2022-08-26T10:55:23.042Z,39.19
2022-08-26T10:58:00.171Z,39.45
2022-08-26T11:00:53.135Z,39.60
2022-08-26T11:03:32.577Z,39.38
2022-08-26T11:06:18.018Z,39.58
2022-08-26T11:08:53.217Z,39.97
2022-08-26T11:11:38.785Z,40.20
2022-08-26T11:14:07.045Z,40.78
2022-08-26T11:16:42.789Z,40.82
2022-08-26T11:19:12.160Z,40.90
2022-08-26T11:21:50.824Z,40.44
2022-08-26T11:24:37.084Z,40.52
2022-08-26T11:27:04.510Z,40.92
2022-08-26T11:29:56.414Z,40.32
2022-08-26T11:32:25.242Z,39.93
2022-08-26T11:34:56.309Z,40.44
2022-08-26T11:37:25.647Z,39.96
2022-08-26T11:39:55.569Z,39.14
2022-08-26T11:42:41.686Z,39.62
2022-08-26T11:45:25.343Z,40.75
2022-08-26T11:47:53.370Z,41.09
2022-08-26T11:50:20.646Z,40.98
2022-08-26T11:52:55.298Z,40.08
2022-08-26T11:55:24.132Z,39.70
2022-08-26T11:57:53.338Z,39.50
2022-08-26T12:00:35.108Z,39.16
2022-08-26T12:03:05.794Z,39.79
2022-08-26T12:05:36.260Z,40.11
2022-08-26T12:08:11.425Z,39.88
2022-08-26T12:10:38.855Z,39.68
2022-08-26T12:13:07.809Z,38.71
2022-08-26T12:15:35.731Z,38.73
2022-08-26T12:18:30.118Z,38.66
2022-08-26T12:21:01.894Z,38.42
2022-08-26T12:23:46.728Z,38.41
2022-08-26T12:26:14.885Z,38.05
2022-08-26T12:28:43.542Z,37.35
2022-08-26T12:31:10.512Z,36.57
2022-08-26T12:33:37.990Z,35.66
2022-08-26T12:36:06.169Z,34.71
2022-08-26T12:38:35.612Z,33.93
2022-08-26T12:41:02.942Z,33.80
2022-08-26T12:43:37.892Z,33.00
2022-08-26T12:46:06.613Z,33.07
2022-08-26T12:48:38.869Z,32.77
2022-08-26T12:51:26.300Z,32.44
2022-08-26T12:53:53.672Z,32.42
2022-08-26T12:56:27.379Z,32.10
2022-08-26T12:59:05.833Z,32.17
2022-08-26T13:01:38.114Z,31.83
2022-08-26T13:04:06.674Z,32.05
2022-08-26T13:06:35.117Z,31.97
2022-08-26T13:09:06.645Z,32.02
2022-08-26T13:11:33.509Z,31.82
2022-08-26T13:14:09.092Z,31.67
2022-08-26T13:16:37.576Z,31.23
2022-08-26T13:19:10.347Z,30.96
2022-08-26T13:21:45.091Z,30.94
2022-08-26T13:24:14.266Z,30.99
2022-08-26T13:26:42.898Z,31.08
2022-08-26T13:29:10.767Z,31.12
2022-08-26T13:31:39.576Z,30.98
2022-08-26T13:34:07.994Z,31.00
2022-08-26T13:36:34.889Z,30.80
2022-08-26T13:39:02.513Z,30.77
2022-08-26T13:41:29.826Z,30.46
2022-08-26T13:43:57.390Z,30.34
2022-08-26T13:46:26.785Z,29.97
2022-08-26T13:48:54.692Z,29.91
2022-08-26T13:51:23.322Z,30.22
2022-08-26T13:53:50.872Z,30.26
2022-08-26T13:56:18.943Z,30.60
2022-08-26T13:58:46.503Z,30.65
2022-08-26T14:01:15.804Z,30.69
2022-08-26T14:03:43.065Z,30.96
2022-08-26T14:06:10.434Z,30.70
2022-08-26T14:08:38.347Z,30.43
2022-08-26T14:11:05.744Z,30.52
2022-08-26T14:13:32.782Z,30.26
2022-08-26T14:16:01.623Z,30.46
2022-08-26T14:18:31.152Z,30.64
2022-08-26T14:20:59.044Z,30.49
2022-08-26T14:23:26.368Z,30.59
2022-08-26T14:25:53.911Z,30.24
2022-08-26T14:28:21.019Z,29.90
2022-08-26T14:30:51.362Z,30.16
2022-08-26T14:33:20.504Z,29.99
2022-08-26T14:35:48.787Z,30.05
2022-08-26T14:38:16.984Z,30.12
2022-08-26T14:40:45.125Z,30.23
2022-08-26T14:43:17.055Z,30.39
2022-08-26T14:45:45.844Z,30.17
2022-08-26T14:48:13.374Z,30.09
2022-08-26T14:50:40.471Z,30.17
2022-08-26T14:53:26.318Z,29.83
2022-08-26T14:55:53.220Z,29.53
2022-08-26T14:58:20.599Z,29.21
2022-08-26T15:00:47.675Z,28.85
2022-08-26T15:05:48.406Z,27.99
2022-08-26T15:08:16.225Z,27.79
2022-08-26T15:10:43.081Z,27.69
2022-08-26T15:13:10.334Z,27.58
2022-08-26T15:15:38.167Z,27.32
2022-08-26T15:18:05.631Z,27.18
2022-08-26T15:23:07.160Z,26.79
2022-08-26T15:25:34.834Z,26.70
2022-08-26T15:28:02.218Z,26.53
2022-08-26T15:30:29.584Z,26.34
2022-08-26T15:32:56.781Z,26.32
2022-08-26T15:35:24.575Z,26.22
2022-08-26T15:40:22.034Z,25.90
2022-08-26T15:42:57.473Z,25.85
2022-08-26T15:45:28.734Z,25.88
2022-08-26T15:48:01.561Z,25.67
2022-08-26T15:50:30.074Z,25.76
2022-08-26T15:52:57.336Z,25.71
2022-08-26T15:55:24.787Z,25.56
2022-08-26T15:57:52.357Z,25.70
2022-08-26T16:00:20.144Z,25.60
2022-08-26T16:02:47.286Z,25.58
2022-08-26T16:05:14.724Z,25.48
2022-08-26T16:07:41.654Z,25.09
2022-08-26T16:10:09.084Z,25.03
2022-08-26T16:12:36.288Z,24.63
2022-08-26T16:15:03.643Z,24.26
2022-08-26T16:17:30.732Z,24.40
2022-08-26T16:19:58.081Z,24.50
2022-08-26T16:22:25.394Z,24.30
2022-08-26T16:24:58.659Z,24.44
2022-08-26T16:27:25.990Z,24.59
2022-08-26T16:29:52.861Z,24.68
2022-08-26T16:32:19.931Z,24.47
2022-08-26T16:34:56.683Z,24.53
2022-08-26T16:37:24.090Z,24.51
2022-08-26T16:39:51.291Z,24.51
2022-08-26T16:42:18.962Z,24.43
2022-08-26T16:44:46.244Z,24.28
2022-08-26T16:47:14.537Z,24.18
2022-08-26T16:49:42.040Z,24.15
2022-08-26T16:52:09.605Z,24.15
2022-08-26T16:54:38.489Z,24.11
2022-08-26T16:57:05.749Z,24.10
2022-08-26T16:59:33.563Z,23.98
2022-08-26T17:02:00.854Z,24.01
2022-08-26T17:04:29.047Z,24.02
2022-08-26T17:06:56.964Z,23.94
2022-08-26T17:09:24.270Z,23.80
2022-08-26T17:11:51.381Z,23.71
2022-08-26T17:14:18.659Z,23.71
2022-08-26T17:16:46.258Z,23.63
2022-08-26T17:19:13.176Z,23.62
2022-08-26T17:21:41.586Z,23.59
2022-08-26T17:24:08.667Z,23.33
2022-08-26T17:26:37.387Z,23.15
2022-08-26T17:29:06.410Z,23.02
2022-08-26T17:31:33.734Z,22.77
2022-08-26T17:34:01.174Z,22.87
2022-08-26T17:36:28.566Z,22.67
2022-08-26T17:38:56.302Z,22.78
2022-08-26T17:41:23.393Z,23.00
2022-08-26T17:43:50.695Z,23.02
2022-08-26T17:46:17.651Z,23.08
2022-08-26T17:48:44.854Z,23.06
2022-08-26T17:51:13.719Z,23.00
2022-08-26T17:53:41.623Z,22.89
2022-08-26T17:56:09.625Z,22.75
2022-08-26T17:58:37.345Z,22.64
2022-08-26T18:01:05.932Z,22.27
2022-08-26T18:03:33.698Z,22.29
2022-08-26T18:06:01.654Z,22.24
2022-08-26T18:08:28.659Z,22.11
2022-08-26T18:10:55.541Z,22.14
2022-08-26T18:13:22.799Z,22.09
2022-08-26T18:15:49.870Z,22.11
2022-08-26T18:18:16.887Z,22.18
2022-08-26T18:20:45.497Z,22.18
2022-08-26T18:23:13.117Z,22.10
2022-08-26T18:25:43.762Z,21.82
2022-08-26T18:28:11.346Z,21.79
2022-08-26T18:30:38.754Z,21.86
2022-08-26T18:33:05.751Z,21.74
2022-08-26T18:35:34.100Z,21.62
2022-08-26T18:38:10.753Z,21.64
2022-08-26T18:40:40.064Z,21.64
2022-08-26T18:43:07.135Z,21.64
2022-08-26T18:45:34.755Z,21.78
2022-08-26T18:48:03.356Z,21.80
2022-08-26T18:50:30.824Z,21.78
2022-08-26T18:52:57.749Z,21.77
2022-08-26T18:55:25.577Z,21.80
2022-08-26T18:57:52.665Z,21.71
2022-08-26T19:00:19.794Z,21.65
2022-08-26T19:02:52.051Z,21.67
2022-08-26T19:05:23.110Z,21.65
2022-08-26T19:07:51.694Z,21.65
2022-08-26T19:10:18.623Z,21.59
2022-08-26T19:12:45.536Z,21.46
2022-08-26T19:15:19.171Z,21.50
2022-08-26T19:17:46.093Z,21.56
2022-08-26T19:20:12.962Z,21.56
2022-08-26T19:22:40.293Z,21.53
2022-08-26T19:25:07.387Z,21.46
2022-08-26T19:27:34.315Z,21.47
2022-08-26T19:30:01.643Z,21.45
2022-08-26T19:32:28.557Z,21.44
2022-08-26T19:34:55.519Z,21.36
2022-08-26T19:37:22.847Z,21.35
2022-08-26T19:39:49.760Z,21.32
2022-08-26T19:42:16.828Z,21.29
2022-08-26T19:45:02.752Z,21.35
2022-08-26T19:47:29.680Z,21.43
2022-08-26T19:49:57.097Z,21.41
2022-08-26T19:52:29.961Z,21.40
2022-08-26T19:54:58.116Z,21.35
2022-08-26T19:57:25.039Z,21.39
2022-08-26T19:59:52.013Z,21.41
2022-08-26T20:02:19.377Z,21.51
2022-08-26T20:04:46.704Z,21.14
2022-08-26T20:07:18.093Z,20.89
2022-08-26T20:09:47.012Z,20.95
2022-08-26T20:12:15.684Z,21.15
2022-08-26T20:14:43.349Z,20.81
2022-08-26T20:17:10.859Z,20.56
2022-08-26T20:19:56.598Z,20.64
2022-08-26T20:22:24.133Z,20.75
2022-08-26T20:24:51.783Z,20.80
2022-08-26T20:27:18.899Z,20.77
2022-08-26T20:29:46.341Z,20.70
2022-08-26T20:32:13.741Z,20.58
2022-08-26T20:34:40.663Z,20.54
2022-08-26T20:37:08.670Z,20.58
2022-08-26T20:39:36.575Z,20.34
2022-08-26T20:42:04.628Z,20.12
2022-08-26T20:44:32.763Z,20.10
2022-08-26T20:47:00.412Z,19.90
2022-08-26T20:49:28.162Z,19.96
2022-08-26T20:51:55.740Z,20.16
2022-08-26T20:54:28.142Z,20.16
2022-08-26T20:56:56.136Z,20.17
2022-08-26T20:59:23.296Z,20.41
2022-08-26T21:01:50.811Z,20.33
2022-08-26T21:04:19.917Z,20.33
2022-08-26T21:06:52.199Z,20.41
2022-08-26T21:09:20.875Z,20.33
2022-08-26T21:11:49.089Z,20.19
2022-08-26T21:14:17.018Z,20.31
2022-08-26T21:16:44.823Z,20.27
2022-08-26T21:19:13.233Z,20.08
2022-08-26T21:21:40.983Z,20.23
2022-08-26T21:24:08.649Z,20.16
2022-08-26T21:26:35.881Z,20.18
2022-08-26T21:29:02.958Z,20.33
2022-08-26T21:31:32.140Z,20.37
2022-08-26T21:33:59.993Z,20.42
2022-08-26T21:36:27.313Z,20.50
2022-08-26T21:38:58.683Z,20.46
2022-08-26T21:41:27.168Z,20.45
2022-08-26T21:43:56.083Z,20.40
2022-08-26T21:46:23.914Z,20.33
2022-08-26T21:48:54.095Z,20.39
2022-08-26T21:51:22.946Z,20.32
2022-08-26T21:53:50.821Z,20.12
2022-08-26T21:56:21.026Z,20.16
2022-08-26T21:58:48.280Z,20.29
2022-08-26T22:01:17.474Z,20.33
2022-08-26T22:03:46.632Z,20.28
2022-08-26T22:06:19.067Z,20.18
2022-08-26T22:08:46.097Z,20.14
2022-08-26T22:11:14.349Z,20.10
2022-08-26T22:13:42.678Z,20.20
2022-08-26T22:16:10.705Z,20.25
2022-08-26T22:18:38.121Z,20.20
2022-08-26T22:21:07.928Z,20.15
2022-08-26T22:23:35.982Z,20.13
2022-08-26T22:26:03.246Z,20.13
2022-08-26T22:28:30.168Z,20.05
2022-08-26T22:30:57.497Z,20.01
2022-08-26T22:33:25.483Z,19.91
2022-08-26T22:35:53.085Z,19.95
2022-08-26T22:38:20.743Z,19.95
2022-08-26T22:40:50.513Z,19.91
2022-08-26T22:43:18.327Z,19.93
2022-08-26T22:45:46.570Z,19.87
2022-08-26T22:48:15.663Z,19.89
2022-08-26T22:50:43.462Z,19.85
2022-08-26T22:53:10.585Z,19.83
2022-08-26T22:55:37.926Z,19.81
2022-08-26T22:58:05.595Z,19.81
2022-08-26T23:00:33.506Z,19.80
2022-08-26T23:03:01.040Z,19.82
2022-08-26T23:05:27.967Z,19.78
2022-08-26T23:07:56.781Z,19.82
2022-08-26T23:10:24.194Z,19.76
2022-08-26T23:12:52.958Z,19.74
2022-08-26T23:15:20.942Z,19.79
2022-08-26T23:17:48.359Z,19.85
2022-08-26T23:20:25.885Z,19.81
2022-08-26T23:22:53.625Z,19.78
2022-08-26T23:25:20.809Z,19.73
2022-08-26T23:27:48.269Z,19.76
2022-08-26T23:30:17.409Z,19.79
2022-08-26T23:32:44.544Z,19.83
2022-08-26T23:57:22.270Z,19.24
2022-08-26T23:59:49.761Z,19.37
